Time;durP1;ratioP1;P1;durP2;ratioP2;P2;SDS_P1;SDS_P2;PMS_P1;PMS_P2;Temp;Humidity;BMP_temperature;BMP_pressure;BME280_temperature;BME280_humidity;BME280_pressure;Samples;Min_cycle;Max_cycle;Signal;HPM_P1;HPM_P2
2023/10/22 00:02:16;;;;;;;18.20;7.45;;;24.70;55.60;;;;;;5096682;28;20024;-71
2023/10/22 00:04:42;;;;;;;17.05;6.85;;;24.60;55.50;;;;;;5031720;28;20136;-71
2023/10/22 00:07:08;;;;;;;13.15;6.68;;;24.70;55.60;;;;;;5033691;28;20039;-72
2023/10/22 00:09:34;;;;;;;14.27;7.03;;;24.80;55.70;;;;;;5033795;28;20465;-71
2023/10/22 00:12:00;;;;;;;19.83;7.43;;;24.60;55.60;;;;;;5023703;28;20496;-72
2023/10/22 00:14:26;;;;;;;19.42;7.10;;;24.60;55.70;;;;;;5031325;28;20072;-72
2023/10/22 00:16:52;;;;;;;20.27;7.35;;;24.60;55.70;;;;;;5030253;28;20037;-71
2023/10/22 00:19:18;;;;;;;19.63;7.18;;;24.70;55.80;;;;;;5013578;28;20116;-71
2023/10/22 00:21:46;;;;;;;19.35;6.32;;;24.70;55.80;;;;;;5030209;28;20045;-71
2023/10/22 00:24:12;;;;;;;19.38;6.93;;;24.60;55.70;;;;;;5038821;28;20041;-72
2023/10/22 00:26:39;;;;;;;14.02;5.68;;;24.70;55.80;;;;;;5034217;28;20041;-71
2023/10/22 00:29:06;;;;;;;16.40;6.63;;;24.60;55.80;;;;;;5048151;28;20036;-72
2023/10/22 00:31:32;;;;;;;11.57;6.30;;;24.50;55.90;;;;;;5048937;28;20110;-71
2023/10/22 00:33:58;;;;;;;16.30;6.32;;;24.60;56.10;;;;;;5020774;28;20060;-72
2023/10/22 00:36:24;;;;;;;13.25;5.68;;;24.60;56.10;;;;;;5061809;28;20086;-71
2023/10/22 00:38:51;;;;;;;11.32;5.05;;;24.60;56.10;;;;;;5092563;28;20050;-71
2023/10/22 00:41:17;;;;;;;15.90;6.57;;;24.70;56.30;;;;;;5074391;28;20056;-71
2023/10/22 00:43:43;;;;;;;16.55;7.28;;;24.60;56.10;;;;;;5074028;28;20123;-72
2023/10/22 00:46:20;;;;;;;18.67;6.95;;;24.60;56.20;;;;;;5095803;28;20040;-71
2023/10/22 00:48:47;;;;;;;16.92;6.75;;;24.70;56.30;;;;;;5074197;28;20463;-72
2023/10/22 00:51:14;;;;;;;10.60;5.93;;;24.70;56.30;;;;;;5073853;28;20035;-71
2023/10/22 00:53:42;;;;;;;13.02;7.13;;;24.70;56.40;;;;;;5091898;28;20040;-70
2023/10/22 00:56:09;;;;;;;16.17;6.10;;;24.70;56.20;;;;;;5096316;28;20126;-70
2023/10/22 00:58:36;;;;;;;16.45;6.63;;;24.70;56.20;;;;;;5093785;28;20466;-69
2023/10/22 01:01:06;;;;;;;19.33;6.85;;;24.70;56.30;;;;;;5089337;28;20058;-70
2023/10/22 01:03:33;;;;;;;11.73;6.10;;;24.80;56.30;;;;;;5093139;28;20035;-69
2023/10/22 01:06:01;;;;;;;21.85;6.13;;;24.70;56.30;;;;;;5076879;28;20039;-70
2023/10/22 01:08:27;;;;;;;10.88;6.32;;;24.70;56.30;;;;;;5093547;28;20035;-70
2023/10/22 01:11:06;;;;;;;16.58;6.78;;;24.70;56.40;;;;;;5091627;28;20424;-69
2023/10/22 01:13:34;;;;;;;14.55;6.00;;;24.90;56.40;;;;;;5068252;28;20055;-70
2023/10/22 01:16:01;;;;;;;16.45;6.20;;;24.80;56.40;;;;;;5067257;28;20047;-70
2023/10/22 01:18:27;;;;;;;16.08;6.30;;;24.90;56.40;;;;;;5031377;28;20037;-69
2023/10/22 01:20:53;;;;;;;11.65;5.57;;;24.90;56.40;;;;;;5048450;28;20442;-70
2023/10/22 01:23:20;;;;;;;13.73;6.38;;;25.00;56.40;;;;;;5031009;28;20052;-70
2023/10/22 01:25:46;;;;;;;12.40;6.28;;;24.80;56.30;;;;;;5025978;28;20060;-70
2023/10/22 01:28:12;;;;;;;15.57;6.53;;;24.80;56.30;;;;;;5028159;28;20227;-70
2023/10/22 01:30:38;;;;;;;19.42;6.80;;;24.90;56.40;;;;;;5043732;28;20144;-70
2023/10/22 01:33:04;;;;;;;14.55;6.72;;;24.90;56.40;;;;;;5048084;28;20062;-70
2023/10/22 01:35:30;;;;;;;20.48;6.78;;;25.00;56.40;;;;;;5031770;28;20056;-69
2023/10/22 01:37:56;;;;;;;14.30;7.53;;;24.90;56.40;;;;;;5031680;28;20049;-70
2023/10/22 01:40:22;;;;;;;19.08;8.93;;;25.00;56.40;;;;;;5029615;28;20048;-70
2023/10/22 01:42:48;;;;;;;16.30;7.78;;;24.90;56.40;;;;;;5048017;28;20037;-69
2023/10/22 01:45:14;;;;;;;13.15;6.53;;;25.00;56.30;;;;;;5061948;28;20083;-70
2023/10/22 01:47:40;;;;;;;21.13;7.78;;;25.00;56.30;;;;;;5051540;28;20068;-70
2023/10/22 01:50:06;;;;;;;20.52;8.77;;;25.00;56.30;;;;;;5088401;28;20483;-69
2023/10/22 01:52:32;;;;;;;13.35;7.43;;;25.00;56.30;;;;;;5073076;28;20036;-69
2023/10/22 01:54:59;;;;;;;24.65;8.05;;;24.90;56.30;;;;;;5090879;28;20383;-70
2023/10/22 01:57:25;;;;;;;17.83;7.88;;;24.90;56.30;;;;;;5109916;28;20107;-69
2023/10/22 01:59:51;;;;;;;16.65;7.57;;;25.00;56.30;;;;;;5068362;28;20040;-70
2023/10/22 02:02:17;;;;;;;16.48;7.60;;;25.00;56.30;;;;;;5072382;28;20089;-70
2023/10/22 02:04:44;;;;;;;15.13;7.13;;;25.00;56.30;;;;;;5039461;28;20040;-70
2023/10/22 02:07:10;;;;;;;12.73;7.03;;;25.00;56.30;;;;;;5056205;28;20076;-70
2023/10/22 02:09:37;;;;;;;22.83;8.25;;;25.00;56.30;;;;;;5058452;28;20068;-69
2023/10/22 02:12:04;;;;;;;19.67;7.70;;;24.90;56.20;;;;;;5055890;28;20032;-70
2023/10/22 02:14:30;;;;;;;19.63;8.10;;;24.90;56.20;;;;;;5102762;28;20502;-70
2023/10/22 02:16:56;;;;;;;14.63;7.75;;;25.00;56.20;;;;;;5111191;28;20103;-70
2023/10/22 02:19:22;;;;;;;19.75;8.02;;;25.00;56.20;;;;;;5076607;28;20432;-69
2023/10/22 02:21:48;;;;;;;22.25;8.88;;;25.00;56.20;;;;;;5108247;28;20040;-69
2023/10/22 02:24:14;;;;;;;15.13;8.77;;;25.00;56.20;;;;;;5092617;28;20043;-69
2023/10/22 02:26:40;;;;;;;15.65;7.65;;;24.90;56.10;;;;;;5086502;28;20042;-69
2023/10/22 02:29:08;;;;;;;18.50;7.07;;;24.90;56.10;;;;;;5076126;28;20527;-69
2023/10/22 02:31:34;;;;;;;18.45;7.25;;;25.00;56.10;;;;;;5102841;28;20110;-70
2023/10/22 02:34:02;;;;;;;15.20;7.82;;;25.00;56.10;;;;;;5110992;28;20089;-70
2023/10/22 02:36:28;;;;;;;16.38;7.28;;;24.90;56.20;;;;;;5112935;28;20518;-69
2023/10/22 02:38:54;;;;;;;20.52;8.13;;;24.90;56.20;;;;;;5096399;28;20076;-70
2023/10/22 02:41:20;;;;;;;20.05;8.57;;;24.90;56.20;;;;;;5095901;28;20035;-69
2023/10/22 02:43:46;;;;;;;16.35;8.07;;;24.80;56.20;;;;;;5109526;28;20420;-70
2023/10/22 02:46:12;;;;;;;23.70;8.40;;;24.70;56.20;;;;;;5075811;28;20028;-70
2023/10/22 02:48:38;;;;;;;13.98;7.53;;;24.80;56.20;;;;;;5094218;28;20043;-69
2023/10/22 02:51:04;;;;;;;21.27;7.82;;;24.70;56.30;;;;;;5075839;28;20043;-70
2023/10/22 02:53:30;;;;;;;13.68;7.80;;;24.80;56.30;;;;;;5059305;28;20535;-70
2023/10/22 02:56:01;;;;;;;21.80;7.95;;;24.80;56.30;;;;;;5075717;28;20036;-69
2023/10/22 02:58:29;;;;;;;18.30;8.38;;;24.90;56.40;;;;;;5085549;28;20047;-70
2023/10/22 03:01:04;;;;;;;15.35;6.82;;;24.70;56.20;;;;;;5096221;28;20144;-69
2023/10/22 03:03:31;;;;;;;15.90;7.30;;;24.90;56.30;;;;;;5088803;28;20054;-69
2023/10/22 03:05:58;;;;;;;17.05;7.20;;;25.00;56.30;;;;;;5094933;28;20483;-70
2023/10/22 03:08:25;;;;;;;20.65;7.65;;;24.90;56.30;;;;;;5079470;28;20054;-69
2023/10/22 03:10:51;;;;;;;19.58;7.28;;;24.90;56.30;;;;;;5113101;28;20043;-69
2023/10/22 03:13:17;;;;;;;14.45;7.03;;;24.80;56.20;;;;;;5108176;28;20024;-70
2023/10/22 03:15:43;;;;;;;18.70;7.68;;;24.80;56.20;;;;;;5075507;28;20024;-69
2023/10/22 03:18:09;;;;;;;14.05;7.35;;;24.90;56.20;;;;;;5075726;28;20049;-69
2023/10/22 03:20:35;;;;;;;15.75;7.25;;;24.90;56.20;;;;;;5075317;28;20028;-69
2023/10/22 03:23:03;;;;;;;15.70;6.75;;;24.80;56.10;;;;;;5093251;28;20024;-70
2023/10/22 03:25:29;;;;;;;14.75;7.32;;;24.90;56.20;;;;;;5102113;28;20497;-70
2023/10/22 03:27:55;;;;;;;16.85;7.20;;;24.90;56.20;;;;;;5108857;28;20032;-69
2023/10/22 03:30:22;;;;;;;14.27;7.50;;;24.80;56.10;;;;;;5113508;28;20466;-70
2023/10/22 03:32:48;;;;;;;12.38;6.10;;;24.70;56.10;;;;;;5073266;28;20615;-70
2023/10/22 03:35:16;;;;;;;20.75;7.05;;;24.70;56.10;;;;;;5074077;28;20041;-69
2023/10/22 03:37:42;;;;;;;14.38;7.28;;;24.80;56.10;;;;;;5042816;28;20036;-70
2023/10/22 03:40:11;;;;;;;18.35;7.28;;;24.80;56.20;;;;;;5070503;28;20543;-70
2023/10/22 03:42:37;;;;;;;20.25;7.15;;;24.70;56.30;;;;;;5052335;28;20080;-70
2023/10/22 03:45:05;;;;;;;16.88;6.75;;;24.80;56.20;;;;;;5089799;28;20553;-70
2023/10/22 03:47:31;;;;;;;16.30;6.30;;;24.70;56.20;;;;;;5090157;28;20054;-70
2023/10/22 03:49:58;;;;;;;19.60;7.25;;;24.70;56.20;;;;;;5090312;28;20056;-70
2023/10/22 03:52:24;;;;;;;14.10;6.75;;;24.80;56.20;;;;;;5064862;28;20071;-69
2023/10/22 03:54:50;;;;;;;13.38;6.60;;;24.70;56.20;;;;;;5053312;28;20070;-70
2023/10/22 03:57:16;;;;;;;23.95;6.95;;;24.70;56.20;;;;;;5028981;28;20033;-70
2023/10/22 03:59:42;;;;;;;12.85;6.13;;;24.80;56.20;;;;;;5049886;28;20071;-70
2023/10/22 04:02:07;;;;;;;14.15;6.70;;;24.80;56.20;;;;;;5049770;28;20045;-70
2023/10/22 04:04:33;;;;;;;16.67;6.18;;;24.80;56.20;;;;;;5052617;28;20036;-70
2023/10/22 04:06:59;;;;;;;17.83;6.88;;;24.80;56.20;;;;;;5049846;28;20044;-70
2023/10/22 04:09:25;;;;;;;17.85;7.00;;;24.70;56.20;;;;;;5049845;28;20072;-69
2023/10/22 04:11:51;;;;;;;13.27;6.75;;;24.80;56.10;;;;;;5052001;28;20064;-69
2023/10/22 04:14:17;;;;;;;20.85;6.70;;;24.70;56.10;;;;;;5049838;28;20127;-69
2023/10/22 04:16:43;;;;;;;12.80;6.05;;;24.70;56.10;;;;;;5049904;28;20407;-70
2023/10/22 04:19:09;;;;;;;20.98;7.13;;;24.70;56.10;;;;;;5049910;28;20353;-70
2023/10/22 04:21:35;;;;;;;23.63;7.63;;;24.60;56.00;;;;;;5032931;28;20041;-69
2023/10/22 04:24:02;;;;;;;12.30;6.30;;;24.70;56.10;;;;;;5032765;28;20124;-69
2023/10/22 04:26:29;;;;;;;16.75;7.47;;;24.60;56.00;;;;;;4977730;28;20104;-69
2023/10/22 04:28:55;;;;;;;15.95;6.75;;;24.80;56.10;;;;;;4995573;28;20046;-69
2023/10/22 04:31:21;;;;;;;19.75;6.65;;;24.70;56.10;;;;;;4998740;28;20069;-69
2023/10/22 04:33:47;;;;;;;16.52;7.35;;;24.50;56.00;;;;;;4995311;28;20140;-69
2023/10/22 04:36:17;;;;;;;11.30;6.18;;;24.50;56.10;;;;;;5036962;28;20048;-70
2023/10/22 04:38:43;;;;;;;13.50;5.88;;;24.70;56.20;;;;;;5049245;28;20484;-70
2023/10/22 04:41:12;;;;;;;14.75;6.07;;;24.60;56.10;;;;;;5048574;28;20156;-69
2023/10/22 04:43:39;;;;;;;14.77;6.03;;;24.60;56.10;;;;;;5039528;28;20037;-70
2023/10/22 04:46:05;;;;;;;12.23;6.15;;;24.60;56.10;;;;;;5033826;28;20046;-69
2023/10/22 04:48:32;;;;;;;24.40;6.50;;;24.70;56.20;;;;;;5031302;28;20041;-70
2023/10/22 04:51:03;;;;;;;16.48;6.57;;;24.50;56.10;;;;;;5029110;28;20038;-69
2023/10/22 04:53:29;;;;;;;15.38;6.07;;;24.60;56.10;;;;;;5030252;28;20536;-71
2023/10/22 04:55:56;;;;;;;15.20;6.43;;;24.60;56.10;;;;;;5029358;28;20075;-70
2023/10/22 04:58:23;;;;;;;11.15;6.32;;;24.70;56.10;;;;;;5092065;28;20467;-70
2023/10/22 05:00:50;;;;;;;15.85;6.38;;;24.70;56.10;;;;;;5090913;28;20459;-70
2023/10/22 05:03:16;;;;;;;11.15;6.07;;;24.70;56.10;;;;;;5097357;28;20035;-71
2023/10/22 05:05:42;;;;;;;19.27;6.43;;;24.70;56.10;;;;;;5111895;28;20086;-70
2023/10/22 05:08:09;;;;;;;14.35;6.47;;;24.70;56.10;;;;;;5093023;28;20174;-70
2023/10/22 05:10:39;;;;;;;12.55;6.57;;;24.70;56.00;;;;;;5082395;28;20024;-69
2023/10/22 05:13:07;;;;;;;11.57;5.93;;;24.70;56.10;;;;;;5104498;28;20039;-69
2023/10/22 05:15:33;;;;;;;17.00;6.30;;;24.50;55.90;;;;;;5111077;28;20030;-70
2023/10/22 05:17:59;;;;;;;17.08;7.30;;;24.60;55.90;;;;;;5111339;28;20024;-69
2023/10/22 05:20:28;;;;;;;19.92;6.18;;;24.60;56.00;;;;;;5111422;28;20024;-70
2023/10/22 05:22:54;;;;;;;15.00;7.00;;;24.60;56.00;;;;;;5094631;28;20031;-69
2023/10/22 05:25:20;;;;;;;16.98;7.30;;;24.60;55.80;;;;;;5092191;28;20051;-69
2023/10/22 05:27:47;;;;;;;20.50;7.10;;;24.50;55.80;;;;;;5100918;28;20028;-70
2023/10/22 05:30:14;;;;;;;17.38;6.47;;;24.50;55.80;;;;;;5091211;28;20116;-70
2023/10/22 05:32:40;;;;;;;12.02;6.13;;;24.40;55.80;;;;;;5101850;28;20042;-71
2023/10/22 05:35:06;;;;;;;14.43;6.25;;;24.60;55.90;;;;;;5034861;28;20420;-70
2023/10/22 05:37:33;;;;;;;18.50;5.72;;;24.50;55.90;;;;;;5068600;28;20044;-70
2023/10/22 05:40:00;;;;;;;6.75;2.47;;;24.50;56.00;;;;;;5051759;28;20098;-69
2023/10/22 05:42:26;;;;;;;4.47;2.30;;;24.60;55.40;;;;;;5066866;28;20516;-71
2023/10/22 05:44:52;;;;;;;5.00;2.63;;;24.50;54.90;;;;;;5067642;28;20494;-71
2023/10/22 05:47:18;;;;;;;6.07;2.45;;;24.70;55.60;;;;;;5067915;28;20947;-69
2023/10/22 05:49:44;;;;;;;6.80;2.45;;;24.70;54.00;;;;;;5022569;28;20068;-70
2023/10/22 05:52:10;;;;;;;5.97;1.77;;;24.70;54.70;;;;;;5008927;28;20116;-75
2023/10/22 05:54:36;;;;;;;5.70;2.25;;;24.60;55.30;;;;;;5011086;28;20055;-76
2023/10/22 05:57:03;;;;;;;6.03;2.88;;;24.80;55.50;;;;;;5009086;28;20466;-77
2023/10/22 05:59:29;;;;;;;12.05;3.38;;;24.80;55.30;;;;;;5009920;28;20327;-75
2023/10/22 06:01:55;;;;;;;9.40;3.00;;;24.70;55.00;;;;;;5028910;28;20050;-75
2023/10/22 06:04:21;;;;;;;11.13;4.45;;;24.70;54.50;;;;;;5012204;28;20049;-70
2023/10/22 06:06:46;;;;;;;6.93;4.30;;;24.80;54.50;;;;;;5025562;28;20472;-70
2023/10/22 06:09:13;;;;;;;14.95;6.00;;;24.80;55.00;;;;;;5048362;28;20037;-71
2023/10/22 06:11:39;;;;;;;17.42;7.28;;;24.80;54.80;;;;;;5051025;28;20069;-69
2023/10/22 06:14:05;;;;;;;11.68;6.90;;;24.80;54.10;;;;;;5009880;28;20047;-70
2023/10/22 06:16:32;;;;;;;11.30;8.63;;;24.90;55.50;;;;;;5032174;28;20049;-70
2023/10/22 06:18:58;;;;;;;15.88;7.95;;;25.00;55.00;;;;;;5048912;28;20037;-70
2023/10/22 06:21:24;;;;;;;11.00;6.55;;;24.90;52.20;;;;;;5047845;28;20032;-69
2023/10/22 06:23:51;;;;;;;12.60;5.15;;;25.00;53.30;;;;;;5100226;28;20455;-69
2023/10/22 06:26:17;;;;;;;8.82;4.60;;;24.90;53.90;;;;;;5114017;28;20055;-68
2023/10/22 06:28:43;;;;;;;13.27;3.70;;;25.00;55.40;;;;;;5109560;28;20032;-71
2023/10/22 06:31:11;;;;;;;11.95;4.28;;;25.10;56.80;;;;;;5094903;28;20028;-71
2023/10/22 06:33:39;;;;;;;8.73;4.25;;;25.10;54.90;;;;;;5076411;28;20036;-71
2023/10/22 06:36:18;;;;;;;8.75;3.55;;;25.00;54.70;;;;;;5094864;28;20032;-71
2023/10/22 06:38:46;;;;;;;7.25;3.50;;;25.00;54.80;;;;;;5097934;28;20027;-72
2023/10/22 06:41:21;;;;;;;11.73;4.40;;;25.00;54.90;;;;;;5096482;28;20167;-69
2023/10/22 06:43:48;;;;;;;8.23;4.07;;;25.00;54.80;;;;;;5107562;28;20104;-68
2023/10/22 06:46:17;;;;;;;8.73;3.60;;;25.10;55.60;;;;;;5094557;28;20032;-71
2023/10/22 06:48:43;;;;;;;11.50;3.42;;;25.10;55.80;;;;;;5077425;28;20052;-70
2023/10/22 06:51:10;;;;;;;7.30;3.55;;;25.10;55.80;;;;;;5101959;28;20060;-72
2023/10/22 06:53:37;;;;;;;4.32;2.70;;;25.00;55.40;;;;;;5096241;28;20028;-72
2023/10/22 06:56:05;;;;;;;12.85;4.38;;;25.10;56.70;;;;;;5112237;28;20058;-73
2023/10/22 06:58:31;;;;;;;10.55;4.45;;;25.20;56.80;;;;;;5085494;28;20383;-73
2023/10/22 07:01:11;;;;;;;12.45;4.07;;;25.20;56.20;;;;;;5097340;28;20067;-74
2023/10/22 07:03:40;;;;;;;7.65;2.88;;;25.20;56.00;;;;;;5049195;28;20070;-73
2023/10/22 07:06:06;;;;;;;4.38;2.80;;;25.10;55.90;;;;;;5061558;28;20097;-73
2023/10/22 07:08:32;;;;;;;7.28;3.83;;;25.10;56.00;;;;;;5062186;28;20124;-74
2023/10/22 07:10:59;;;;;;;10.65;3.63;;;25.20;56.00;;;;;;5058626;28;20463;-71
2023/10/22 07:13:26;;;;;;;7.38;3.60;;;25.20;55.90;;;;;;5056107;28;20485;-74
2023/10/22 07:15:52;;;;;;;8.05;3.72;;;25.30;55.80;;;;;;5059677;28;20032;-73
2023/10/22 07:18:19;;;;;;;8.38;3.63;;;25.30;55.90;;;;;;5065349;28;20037;-73
2023/10/22 07:20:46;;;;;;;9.90;3.47;;;25.30;55.70;;;;;;5060415;28;20039;-74
2023/10/22 07:23:12;;;;;;;16.23;4.07;;;25.30;55.20;;;;;;5042279;28;20045;-73
2023/10/22 07:25:38;;;;;;;12.80;4.30;;;25.30;54.50;;;;;;5063961;28;20099;-73
2023/10/22 07:28:05;;;;;;;8.20;2.95;;;25.30;53.80;;;;;;5069117;28;20060;-76
2023/10/22 07:30:31;;;;;;;5.22;3.50;;;25.30;53.10;;;;;;5050044;28;20029;-76
2023/10/22 07:32:58;;;;;;;7.93;3.72;;;25.30;52.30;;;;;;5065381;28;20068;-72
2023/10/22 07:35:24;;;;;;;7.20;3.38;;;25.30;52.10;;;;;;5100836;28;20120;-73
2023/10/22 07:37:50;;;;;;;7.28;3.72;;;25.10;52.00;;;;;;5086696;28;20455;-71
2023/10/22 07:40:17;;;;;;;7.28;3.65;;;25.20;51.60;;;;;;5098532;28;20031;-73
2023/10/22 07:42:50;;;;;;;7.78;3.17;;;25.20;51.20;;;;;;5080356;28;20131;-72
2023/10/22 07:45:16;;;;;;;16.33;8.93;;;25.20;50.80;;;;;;5100953;28;20465;-73
2023/10/22 07:47:42;;;;;;;11.07;4.35;;;25.10;50.70;;;;;;5099400;28;20036;-73
2023/10/22 07:50:08;;;;;;;9.18;3.90;;;25.10;50.70;;;;;;5097918;28;20115;-74
2023/10/22 07:52:35;;;;;;;6.75;4.18;;;25.30;50.70;;;;;;5097859;28;20066;-73
2023/10/22 07:55:01;;;;;;;8.40;4.35;;;25.10;50.50;;;;;;5079999;28;20032;-72
2023/10/22 07:57:28;;;;;;;15.77;4.88;;;25.10;50.50;;;;;;5082705;28;20085;-73
2023/10/22 07:59:55;;;;;;;14.43;5.38;;;25.20;50.70;;;;;;5068226;28;20027;-72
2023/10/22 08:02:22;;;;;;;9.52;4.07;;;25.20;50.70;;;;;;5039518;28;20377;-74
2023/10/22 08:04:48;;;;;;;11.90;4.57;;;25.10;50.50;;;;;;5033524;28;20045;-74
2023/10/22 08:07:18;;;;;;;8.88;4.45;;;25.10;50.60;;;;;;5041630;28;20041;-72
2023/10/22 08:09:46;;;;;;;15.30;4.82;;;25.10;50.60;;;;;;5032718;28;20059;-71
2023/10/22 08:12:13;;;;;;;4.65;3.33;;;25.10;50.60;;;;;;5018961;28;20064;-72
2023/10/22 08:14:39;;;;;;;8.35;3.42;;;25.10;50.50;;;;;;5050003;28;20049;-72
2023/10/22 08:17:05;;;;;;;13.35;4.13;;;25.10;50.60;;;;;;5033543;28;20076;-72
2023/10/22 08:19:31;;;;;;;8.32;4.20;;;25.00;50.70;;;;;;5033417;28;20053;-72
2023/10/22 08:21:57;;;;;;;6.10;3.78;;;25.20;50.80;;;;;;5018707;28;20045;-71
2023/10/22 08:24:23;;;;;;;9.98;4.13;;;25.00;50.90;;;;;;5013432;28;20049;-72
2023/10/22 08:26:49;;;;;;;6.63;3.55;;;25.00;51.00;;;;;;5014866;28;20500;-72
2023/10/22 08:29:15;;;;;;;8.05;3.47;;;25.00;51.10;;;;;;5029990;28;20068;-72
2023/10/22 08:31:41;;;;;;;9.27;3.63;;;25.20;51.20;;;;;;5030045;28;20037;-72
2023/10/22 08:34:07;;;;;;;10.43;3.47;;;25.10;51.20;;;;;;5080984;28;20051;-72
2023/10/22 08:36:35;;;;;;;7.63;4.10;;;25.10;51.30;;;;;;5091106;28;20146;-71
2023/10/22 08:39:02;;;;;;;10.40;3.33;;;25.10;51.30;;;;;;5093527;28;20032;-72
2023/10/22 08:41:51;;;;;;;8.60;3.53;;;25.10;51.30;;;;;;5092325;28;20094;-71
2023/10/22 08:44:17;;;;;;;12.90;5.05;;;25.00;51.40;;;;;;5110985;28;20118;-72
2023/10/22 08:46:43;;;;;;;11.32;3.42;;;25.00;51.50;;;;;;5112886;28;20506;-72
2023/10/22 08:49:11;;;;;;;5.55;3.22;;;25.00;51.60;;;;;;5069606;28;20041;-72
2023/10/22 08:51:38;;;;;;;14.02;3.63;;;25.00;51.60;;;;;;5052669;28;20162;-72
2023/10/22 08:54:04;;;;;;;5.63;3.42;;;25.00;51.60;;;;;;5069515;28;20587;-72
2023/10/22 08:56:34;;;;;;;4.47;3.03;;;25.00;51.60;;;;;;5052157;28;20041;-72
2023/10/22 08:59:02;;;;;;;10.75;3.20;;;24.90;51.60;;;;;;5033273;28;20136;-72
2023/10/22 09:01:28;;;;;;;6.18;3.08;;;25.00;51.60;;;;;;5031896;28;20041;-72
2023/10/22 09:03:55;;;;;;;9.73;2.83;;;24.80;51.50;;;;;;5049778;28;20060;-72
2023/10/22 09:06:22;;;;;;;9.77;3.33;;;24.80;51.40;;;;;;5049118;28;20187;-72
2023/10/22 09:08:48;;;;;;;5.30;2.80;;;25.00;51.60;;;;;;5058052;28;20048;-72
2023/10/22 09:11:16;;;;;;;7.30;3.50;;;25.00;51.60;;;;;;5053315;28;20041;-72
2023/10/22 09:13:43;;;;;;;6.38;2.92;;;24.90;51.60;;;;;;5050077;28;20491;-72
2023/10/22 09:16:09;;;;;;;4.45;2.47;;;24.80;51.60;;;;;;5049303;28;20036;-72
2023/10/22 09:18:45;;;;;;;9.27;2.88;;;24.90;51.60;;;;;;5049064;28;20431;-72
2023/10/22 09:21:11;;;;;;;10.55;3.33;;;25.00;51.60;;;;;;5088347;28;20041;-72
2023/10/22 09:23:37;;;;;;;10.10;3.45;;;24.90;51.60;;;;;;5091749;28;20046;-72
2023/10/22 09:26:03;;;;;;;6.82;2.70;;;25.00;51.60;;;;;;5091906;28;20056;-72
2023/10/22 09:28:30;;;;;;;6.82;2.45;;;24.90;51.50;;;;;;5095290;28;20032;-72
2023/10/22 09:30:58;;;;;;;8.73;2.60;;;24.90;51.50;;;;;;5091462;28;20043;-72
2023/10/22 09:33:32;;;;;;;4.32;2.47;;;24.90;51.40;;;;;;5091480;28;20556;-72
2023/10/22 09:36:09;;;;;;;6.72;2.60;;;24.90;51.40;;;;;;5091146;28;20484;-73
2023/10/22 09:38:49;;;;;;;12.65;3.55;;;25.00;51.40;;;;;;5091473;28;20043;-72
2023/10/22 09:41:30;;;;;;;11.13;2.80;;;24.90;51.40;;;;;;5073406;28;20174;-72
2023/10/22 09:43:58;;;;;;;4.57;2.60;;;24.70;51.20;;;;;;5074007;28;20043;-72
2023/10/22 09:46:29;;;;;;;9.23;2.85;;;24.90;51.20;;;;;;5091013;28;20036;-72
2023/10/22 09:48:59;;;;;;;7.10;2.90;;;24.80;51.10;;;;;;5091303;28;20442;-72
2023/10/22 09:51:39;;;;;;;5.88;2.78;;;24.80;51.20;;;;;;5073049;28;20046;-72
2023/10/22 09:54:07;;;;;;;7.35;3.00;;;24.80;51.20;;;;;;5104872;28;20333;-73
2023/10/22 09:56:38;;;;;;;5.95;3.10;;;24.70;51.20;;;;;;5108992;28;20073;-72
2023/10/22 09:59:07;;;;;;;7.50;2.53;;;24.80;51.20;;;;;;5098034;28;20024;-72
2023/10/22 10:01:37;;;;;;;8.02;2.47;;;24.80;51.20;;;;;;5111801;28;20429;-72
2023/10/22 10:04:05;;;;;;;11.68;3.17;;;24.80;51.20;;;;;;5111695;28;20485;-72
2023/10/22 10:06:33;;;;;;;8.98;2.88;;;24.70;51.20;;;;;;5111604;28;20420;-72
2023/10/22 10:09:03;;;;;;;7.07;3.15;;;24.80;51.20;;;;;;5092968;28;20511;-72
2023/10/22 10:11:30;;;;;;;12.45;3.22;;;24.70;51.10;;;;;;5111837;28;20035;-72
2023/10/22 10:13:58;;;;;;;8.52;2.58;;;24.80;51.10;;;;;;5093448;28;20592;-72
2023/10/22 10:16:24;;;;;;;7.40;2.67;;;24.80;51.10;;;;;;5091032;28;20035;-71
2023/10/22 10:19:09;;;;;;;5.07;2.33;;;24.60;50.90;;;;;;5091127;28;20047;-72
2023/10/22 10:21:41;;;;;;;17.38;2.75;;;24.70;51.00;;;;;;5090923;28;20379;-72
2023/10/22 10:24:17;;;;;;;5.35;2.17;;;24.70;50.90;;;;;;5072723;28;20028;-71
2023/10/22 10:26:44;;;;;;;7.65;2.75;;;24.70;50.90;;;;;;5074104;28;20086;-72
2023/10/22 10:29:15;;;;;;;7.53;2.83;;;24.90;51.00;;;;;;5091409;28;20024;-72
2023/10/22 10:31:45;;;;;;;7.40;2.90;;;24.90;50.90;;;;;;5073152;28;20080;-71
2023/10/22 10:34:24;;;;;;;7.38;2.45;;;24.70;50.80;;;;;;5090622;28;20439;-72
2023/10/22 10:36:51;;;;;;;10.88;3.13;;;24.90;50.80;;;;;;5073098;28;20036;-72
2023/10/22 10:39:36;;;;;;;7.25;3.20;;;24.70;50.60;;;;;;5090655;28;20028;-72
2023/10/22 10:42:02;;;;;;;8.93;3.40;;;24.70;50.60;;;;;;5090840;28;20068;-72
2023/10/22 10:44:32;;;;;;;9.25;3.10;;;24.70;50.40;;;;;;5072630;28;20064;-72
2023/10/22 10:47:25;;;;;;;9.77;3.08;;;24.70;50.30;;;;;;5072985;28;20028;-73
2023/10/22 10:49:57;;;;;;;4.05;2.70;;;24.70;50.20;;;;;;5091103;28;20067;-72
2023/10/22 10:52:23;;;;;;;8.80;4.27;;;24.60;50.20;;;;;;5090730;28;20460;-72
2023/10/22 10:55:09;;;;;;;6.57;2.50;;;24.70;50.20;;;;;;5090822;28;20334;-72
2023/10/22 10:57:41;;;;;;;6.15;3.53;;;24.60;50.00;;;;;;5093929;28;20028;-72
2023/10/22 11:00:19;;;;;;;6.38;3.10;;;24.60;50.00;;;;;;5094938;28;20432;-72
2023/10/22 11:02:46;;;;;;;5.15;2.53;;;24.60;49.90;;;;;;5075823;28;20487;-72
2023/10/22 11:05:14;;;;;;;6.40;2.40;;;24.60;49.80;;;;;;5094342;28;20032;-72
2023/10/22 11:07:43;;;;;;;5.03;2.83;;;24.60;49.70;;;;;;5079398;28;20111;-71
2023/10/22 11:10:14;;;;;;;3.78;0.95;;;24.50;49.40;;;;;;5103318;28;20111;-69
2023/10/22 11:12:41;;;;;;;5.05;3.05;;;24.60;50.00;;;;;;5108705;28;20036;-68
2023/10/22 11:15:09;;;;;;;12.85;3.13;;;25.00;49.70;;;;;;5050930;28;20099;-75
2023/10/22 11:17:36;;;;;;;12.20;3.60;;;25.00;50.60;;;;;;4994811;28;20038;-75
2023/10/22 11:20:04;;;;;;;7.50;2.50;;;25.20;51.10;;;;;;4995209;28;20427;-74
2023/10/22 11:22:31;;;;;;;7.90;3.00;;;25.20;49.90;;;;;;4988893;28;20050;-76
2023/10/22 11:25:03;;;;;;;4.25;2.22;;;25.30;50.00;;;;;;4991684;28;20406;-78
2023/10/22 11:27:30;;;;;;;;;;;25.30;50.90;;;;;;4988516;28;20042;-78
2023/10/22 11:29:56;;;;;;;7.07;2.45;;;25.40;51.20;;;;;;5007938;28;19913;-76
2023/10/22 11:32:22;;;;;;;8.93;2.63;;;25.60;49.60;;;;;;4986270;28;20038;-75
2023/10/22 11:34:51;;;;;;;8.13;4.05;;;25.50;49.10;;;;;;4997811;28;20037;-76
2023/10/22 11:37:37;;;;;;;10.00;3.13;;;25.80;51.40;;;;;;5012879;28;20054;-77
2023/10/22 11:40:47;;;;;;;7.07;2.83;;;25.80;51.20;;;;;;4998405;28;20121;-75
2023/10/22 11:43:16;;;;;;;4.97;2.78;;;25.80;51.60;;;;;;4981741;28;20093;-75
2023/10/22 11:45:55;;;;;;;8.10;3.35;;;25.90;51.40;;;;;;4996627;28;20060;-74
2023/10/22 11:48:24;;;;;;;4.28;2.47;;;26.00;52.20;;;;;;5025502;28;20045;-73
2023/10/22 11:50:58;;;;;;;16.67;3.22;;;25.90;48.40;;;;;;5034099;28;20037;-73
2023/10/22 11:53:29;;;;;;;3.40;2.42;;;25.90;47.70;;;;;;5029945;28;20046;-75
2023/10/22 11:55:55;;;;;;;8.55;2.22;;;26.00;47.80;;;;;;5043218;28;20174;-79
2023/10/22 11:58:26;;;;;;;5.30;2.20;;;25.90;47.10;;;;;;5022769;28;20037;-75
2023/10/22 12:00:52;;;;;;;5.68;2.50;;;25.90;46.90;;;;;;5030789;28;20068;-76
2023/10/22 12:03:21;;;;;;;9.23;3.00;;;25.90;47.10;;;;;;5032518;28;20048;-75
2023/10/22 12:05:47;;;;;;;10.70;2.65;;;26.00;47.70;;;;;;5029668;28;20531;-71
2023/10/22 12:08:13;;;;;;;9.60;2.08;;;25.90;47.40;;;;;;5047935;28;20124;-75
2023/10/22 12:10:39;;;;;;;6.47;3.50;;;25.90;47.50;;;;;;5060814;28;20540;-75
2023/10/22 12:13:06;;;;;;;7.25;2.63;;;25.90;47.60;;;;;;5066605;28;20052;-75
2023/10/22 12:15:33;;;;;;;3.30;2.08;;;25.90;47.50;;;;;;5061899;28;20116;-71
2023/10/22 12:17:59;;;;;;;7.00;2.95;;;25.90;47.50;;;;;;5050164;28;20048;-73
2023/10/22 12:20:25;;;;;;;5.88;2.10;;;25.80;47.60;;;;;;5078047;28;20044;-71
2023/10/22 12:22:51;;;;;;;8.02;2.20;;;25.80;47.50;;;;;;5092513;28;20043;-72
2023/10/22 12:25:17;;;;;;;5.30;2.60;;;25.70;47.50;;;;;;5070573;28;20045;-73
2023/10/22 12:27:43;;;;;;;9.93;2.33;;;25.70;47.60;;;;;;5072549;28;20044;-75
2023/10/22 12:30:10;;;;;;;6.28;2.03;;;25.80;47.60;;;;;;5070881;28;20028;-74
2023/10/22 12:32:36;;;;;;;5.68;2.40;;;25.60;47.80;;;;;;5072388;28;20376;-77
2023/10/22 12:35:03;;;;;;;6.35;2.58;;;25.60;47.80;;;;;;5071255;28;20037;-72
2023/10/22 12:37:29;;;;;;;9.55;2.17;;;25.70;47.90;;;;;;5070753;28;20074;-72
2023/10/22 12:39:55;;;;;;;4.82;2.72;;;25.70;48.00;;;;;;5072191;28;20490;-73
2023/10/22 12:42:20;;;;;;;4.65;2.70;;;25.50;48.00;;;;;;5070840;28;20025;-70
2023/10/22 12:44:47;;;;;;;4.88;2.60;;;25.50;47.80;;;;;;5090903;28;20024;-68